Time;durP1;ratioP1;P1;durP2;ratioP2;P2;SDS_P1;SDS_P2;PMS_P1;PMS_P2;Temp;Humidity;BMP_temperature;BMP_pressure;BME280_temperature;BME280_humidity;BME280_pressure;Samples;Min_cycle;Max_cycle;Signal;HPM_P1;HPM_P2
2021/11/24 00:02:15;;;;;;;47.83;18.77;;;;;;;;;;5036288;28;20022;-94
2021/11/24 00:04:40;;;;;;;53.17;19.30;;;;;;;;;;5036245;28;20109;-94
2021/11/24 00:07:05;;;;;;;55.57;19.20;;;;;;;;;;5036292;28;20112;-95
2021/11/24 00:09:30;;;;;;;57.60;18.70;;;;;;;;;;5036236;28;20112;-94
2021/11/24 00:11:56;;;;;;;50.67;18.83;;;;;;;;;;5036339;28;20096;-95
2021/11/24 00:14:21;;;;;;;66.57;18.70;;;;;;;;;;5036088;28;20041;-94
2021/11/24 00:16:46;;;;;;;67.27;20.77;;;;;;;;;;5036267;28;20390;-94
2021/11/24 00:19:11;;;;;;;58.87;19.60;;;;;;;;;;5036202;28;20381;-95
2021/11/24 00:21:37;;;;;;;60.73;20.00;;;;;;;;;;5036150;28;20057;-94
2021/11/24 00:24:02;;;;;;;64.80;20.27;;;;;;;;;;5025354;28;20030;-95
2021/11/24 00:26:27;;;;;;;65.43;21.03;;;;;;;;;;5032832;28;20025;-94
2021/11/24 00:28:53;;;;;;;47.63;18.00;;;;;;;;;;5035509;28;20017;-94
2021/11/24 00:31:18;;;;;;;52.57;19.73;;;;;;;;;;5041687;28;20033;-95
2021/11/24 00:33:43;;;;;;;65.03;19.60;;;;;;;;;;5035664;28;20048;-95
2021/11/24 00:36:08;;;;;;;57.60;20.03;;;;;;;;;;5035924;28;20392;-94
2021/11/24 00:38:34;;;;;;;52.77;18.97;;;;;;;;;;5035489;28;20473;-94
2021/11/24 00:40:59;;;;;;;49.43;18.97;;;;;;;;;;5035535;28;20025;-94
2021/11/24 00:43:26;;;;;;;64.97;21.77;;;;;;;;;;5035764;28;20022;-95
2021/11/24 00:45:53;;;;;;;56.43;20.20;;;;;;;;;;5035576;28;20024;-94
2021/11/24 00:48:18;;;;;;;67.23;20.77;;;;;;;;;;5035663;28;20393;-94
2021/11/24 00:50:43;;;;;;;47.60;18.87;;;;;;;;;;5021532;28;20081;-95
2021/11/24 00:53:08;;;;;;;48.70;18.73;;;;;;;;;;5035522;28;20450;-95
2021/11/24 00:55:34;;;;;;;58.67;20.20;;;;;;;;;;5035295;28;20044;-95
2021/11/24 00:57:59;;;;;;;73.27;22.33;;;;;;;;;;5035354;28;20466;-95
2021/11/24 01:00:24;;;;;;;64.63;21.93;;;;;;;;;;5034864;28;20049;-94
2021/11/24 01:02:50;;;;;;;68.63;21.47;;;;;;;;;;5034871;28;20017;-94
2021/11/24 01:05:15;;;;;;;64.27;23.10;;;;;;;;;;5035433;28;20463;-94
2021/11/24 01:07:41;;;;;;;54.43;19.03;;;;;;;;;;5035028;28;20033;-94
2021/11/24 01:10:07;;;;;;;57.07;19.43;;;;;;;;;;5035216;28;20465;-94
2021/11/24 01:12:32;;;;;;;48.83;20.13;;;;;;;;;;5035037;28;20048;-94
2021/11/24 01:14:57;;;;;;;48.73;19.63;;;;;;;;;;5035316;28;20057;-95
2021/11/24 01:17:23;;;;;;;52.10;19.07;;;;;;;;;;5035063;28;20033;-95
2021/11/24 01:19:48;;;;;;;52.67;20.00;;;;;;;;;;5035005;28;20523;-94
2021/11/24 01:22:13;;;;;;;47.57;19.63;;;;;;;;;;5035053;28;20485;-94
2021/11/24 01:24:39;;;;;;;49.97;19.37;;;;;;;;;;5034676;28;20022;-94
2021/11/24 01:27:04;;;;;;;47.07;19.37;;;;;;;;;;5035023;28;20025;-94
2021/11/24 01:29:29;;;;;;;49.53;18.87;;;;;;;;;;5034952;28;20401;-94
2021/11/24 01:31:55;;;;;;;56.47;19.50;;;;;;;;;;5034562;28;20018;-94
2021/11/24 01:34:20;;;;;;;50.27;18.63;;;;;;;;;;5034774;28;20108;-95
2021/11/24 01:36:45;;;;;;;50.30;18.73;;;;;;;;;;5034689;28;20089;-95
2021/11/24 01:39:10;;;;;;;43.37;18.00;;;;;;;;;;5034582;28;20067;-94
2021/11/24 01:41:35;;;;;;;48.47;17.80;;;;;;;;;;5034665;28;20062;-94
2021/11/24 01:44:01;;;;;;;48.20;18.47;;;;;;;;;;5034477;28;20457;-94
2021/11/24 01:46:27;;;;;;;53.70;17.20;;;;;;;;;;5034606;28;20024;-94
2021/11/24 01:48:52;;;;;;;45.20;19.20;;;;;;;;;;5034252;28;20017;-95
2021/11/24 01:51:18;;;;;;;63.73;21.00;;;;;;;;;;5034453;28;20017;-95
2021/11/24 01:53:43;;;;;;;48.50;18.57;;;;;;;;;;5034452;28;20013;-95
2021/11/24 01:56:09;;;;;;;55.20;20.37;;;;;;;;;;5050841;28;20080;-94
2021/11/24 01:58:36;;;;;;;49.57;19.87;;;;;;;;;;5034176;28;20083;-94
2021/11/24 02:01:01;;;;;;;48.53;18.63;;;;;;;;;;5034098;28;20108;-94
2021/11/24 02:03:27;;;;;;;50.90;18.77;;;;;;;;;;5034176;28;20148;-94
2021/11/24 02:05:52;;;;;;;52.13;18.40;;;;;;;;;;5034031;28;20475;-94
2021/11/24 02:08:17;;;;;;;52.13;19.97;;;;;;;;;;5034312;28;20082;-94
2021/11/24 02:10:43;;;;;;;56.37;19.73;;;;;;;;;;5034125;28;20032;-94
2021/11/24 02:13:08;;;;;;;55.63;19.70;;;;;;;;;;5032569;28;20036;-94
2021/11/24 02:15:33;;;;;;;60.77;19.57;;;;;;;;;;5033824;28;20032;-95
2021/11/24 02:18:04;;;;;;;56.97;18.57;;;;;;;;;;5030704;28;20417;-94
2021/11/24 02:20:42;;;;;;;64.43;20.07;;;;;;;;;;5023634;28;20041;-95
2021/11/24 02:23:08;;;;;;;60.07;18.87;;;;;;;;;;5033426;28;20020;-94
2021/11/24 02:25:34;;;;;;;52.70;19.37;;;;;;;;;;5033671;28;20013;-94
2021/11/24 02:27:59;;;;;;;38.37;16.20;;;;;;;;;;5033403;28;20018;-94
2021/11/24 02:30:25;;;;;;;53.47;17.97;;;;;;;;;;5033294;28;20024;-94
2021/11/24 02:32:50;;;;;;;48.73;18.47;;;;;;;;;;5033695;28;20025;-94
2021/11/24 02:35:15;;;;;;;52.37;19.97;;;;;;;;;;5031324;28;20048;-94
2021/11/24 02:37:41;;;;;;;59.07;19.70;;;;;;;;;;5030388;28;20037;-94
2021/11/24 02:40:06;;;;;;;69.60;21.10;;;;;;;;;;5033470;28;20092;-94
2021/11/24 02:42:31;;;;;;;51.87;19.40;;;;;;;;;;5033407;28;20444;-94
2021/11/24 02:44:57;;;;;;;60.30;20.70;;;;;;;;;;5033246;28;20075;-94
2021/11/24 02:47:22;;;;;;;66.07;20.97;;;;;;;;;;5033452;28;20021;-94
2021/11/24 02:49:52;;;;;;;77.50;24.33;;;;;;;;;;5029052;28;20482;-94
2021/11/24 02:52:20;;;;;;;96.13;26.07;;;;;;;;;;5057163;28;20104;-95
2021/11/24 02:54:55;;;;;;;76.10;23.50;;;;;;;;;;5033138;28;20476;-94
2021/11/24 02:57:28;;;;;;;78.57;23.40;;;;;;;;;;5033032;28;20400;-94
2021/11/24 02:59:54;;;;;;;74.53;24.20;;;;;;;;;;5033152;28;20120;-94
2021/11/24 03:02:19;;;;;;;72.07;23.47;;;;;;;;;;5024269;28;20430;-94
2021/11/24 03:04:44;;;;;;;64.20;21.97;;;;;;;;;;5061532;28;20428;-94
2021/11/24 03:07:09;;;;;;;63.33;22.57;;;;;;;;;;5033084;28;20487;-94
2021/11/24 03:09:34;;;;;;;83.63;23.90;;;;;;;;;;5033037;28;20036;-95
2021/11/24 03:12:00;;;;;;;73.60;22.67;;;;;;;;;;5032886;28;20404;-94
2021/11/24 03:14:25;;;;;;;90.37;24.93;;;;;;;;;;5033073;28;20028;-95
2021/11/24 03:16:50;;;;;;;68.13;23.33;;;;;;;;;;5032699;28;20124;-94
2021/11/24 03:19:15;;;;;;;79.87;25.60;;;;;;;;;;5033142;28;20025;-95
2021/11/24 03:21:40;;;;;;;80.27;25.57;;;;;;;;;;5032960;28;20488;-94
2021/11/24 03:24:06;;;;;;;91.73;26.40;;;;;;;;;;5033612;28;20032;-94
2021/11/24 03:26:31;;;;;;;86.93;24.60;;;;;;;;;;5037143;28;20028;-95
2021/11/24 03:28:57;;;;;;;82.47;24.77;;;;;;;;;;5037104;28;20187;-94
2021/11/24 03:31:22;;;;;;;81.23;25.10;;;;;;;;;;5036945;28;20084;-95
2021/11/24 03:33:47;;;;;;;79.70;24.40;;;;;;;;;;5036889;28;20029;-94
2021/11/24 03:36:13;;;;;;;77.53;25.63;;;;;;;;;;5037024;28;20461;-95
2021/11/24 03:38:38;;;;;;;93.43;24.70;;;;;;;;;;5036767;28;20052;-95
2021/11/24 03:41:03;;;;;;;84.73;21.53;;;;;;;;;;5036795;28;20026;-94
2021/11/24 03:43:29;;;;;;;78.80;23.03;;;;;;;;;;5036857;28;20108;-94
2021/11/24 03:45:54;;;;;;;72.63;21.93;;;;;;;;;;5036294;28;20028;-94
2021/11/24 03:48:19;;;;;;;78.87;22.40;;;;;;;;;;5036810;28;20085;-94
2021/11/24 03:50:45;;;;;;;73.30;22.83;;;;;;;;;;5036457;28;20021;-94
2021/11/24 03:53:10;;;;;;;79.87;23.43;;;;;;;;;;5036542;28;20025;-94
2021/11/24 03:55:36;;;;;;;67.90;23.03;;;;;;;;;;5036561;28;20021;-94
2021/11/24 03:58:02;;;;;;;80.27;24.93;;;;;;;;;;5036300;28;20495;-95
2021/11/24 04:00:28;;;;;;;86.03;23.97;;;;;;;;;;5036448;28;20079;-94
2021/11/24 04:02:53;;;;;;;87.53;23.40;;;;;;;;;;5036274;28;20013;-94
2021/11/24 04:05:19;;;;;;;83.00;23.63;;;;;;;;;;5036440;28;20465;-94
2021/11/24 04:07:44;;;;;;;78.53;26.17;;;;;;;;;;5035951;28;20116;-95
2021/11/24 04:10:10;;;;;;;71.03;22.40;;;;;;;;;;5036196;28;20424;-94
2021/11/24 04:12:37;;;;;;;72.97;22.47;;;;;;;;;;5024236;28;20482;-95
2021/11/24 04:15:03;;;;;;;70.57;23.50;;;;;;;;;;5067859;28;20492;-94
2021/11/24 04:17:28;;;;;;;75.63;23.33;;;;;;;;;;5036182;28;20028;-95
2021/11/24 04:19:54;;;;;;;74.13;23.37;;;;;;;;;;5036008;28;20013;-95
2021/11/24 04:22:19;;;;;;;74.00;22.90;;;;;;;;;;5036398;28;20100;-94
2021/11/24 04:24:44;;;;;;;66.23;23.03;;;;;;;;;;5035750;28;20052;-94
2021/11/24 04:27:09;;;;;;;70.83;23.37;;;;;;;;;;5036045;28;20032;-95
2021/11/24 04:29:35;;;;;;;80.23;25.90;;;;;;;;;;5035923;28;20021;-94
2021/11/24 04:32:00;;;;;;;81.30;25.83;;;;;;;;;;5035801;28;20029;-94
2021/11/24 04:34:26;;;;;;;71.30;23.73;;;;;;;;;;5035857;28;20025;-94
2021/11/24 04:36:51;;;;;;;85.33;25.73;;;;;;;;;;5034521;28;20022;-94
2021/11/24 04:39:16;;;;;;;58.00;23.40;;;;;;;;;;5035810;28;20472;-94
2021/11/24 04:41:42;;;;;;;70.23;23.60;;;;;;;;;;5035720;28;20111;-95
2021/11/24 04:44:07;;;;;;;76.47;25.47;;;;;;;;;;5035645;28;20017;-94
2021/11/24 04:46:32;;;;;;;68.53;24.37;;;;;;;;;;5035639;28;20022;-94
2021/11/24 04:48:57;;;;;;;72.43;25.13;;;;;;;;;;5035718;28;20028;-94
2021/11/24 04:51:23;;;;;;;64.03;24.53;;;;;;;;;;5035461;28;20096;-94
2021/11/24 04:53:48;;;;;;;69.83;25.13;;;;;;;;;;5035578;28;20026;-94
2021/11/24 04:56:13;;;;;;;72.27;25.30;;;;;;;;;;5035390;28;20124;-94
2021/11/24 04:58:51;;;;;;;75.80;23.87;;;;;;;;;;5035311;28;20021;-94
2021/11/24 05:01:16;;;;;;;77.10;24.00;;;;;;;;;;5035367;28;20009;-94
2021/11/24 05:03:41;;;;;;;80.23;25.13;;;;;;;;;;5035335;28;20009;-94
2021/11/24 05:06:07;;;;;;;81.67;24.87;;;;;;;;;;5035038;28;20035;-94
2021/11/24 05:08:34;;;;;;;84.37;24.43;;;;;;;;;;5047004;28;20025;-94
2021/11/24 05:11:00;;;;;;;77.53;24.80;;;;;;;;;;5022377;28;20052;-95
2021/11/24 05:13:25;;;;;;;89.93;26.13;;;;;;;;;;5067399;28;20049;-94
2021/11/24 05:15:54;;;;;;;81.97;23.97;;;;;;;;;;5034962;28;20032;-94
2021/11/24 05:18:25;;;;;;;79.53;25.07;;;;;;;;;;5034944;28;20028;-94
2021/11/24 05:20:50;;;;;;;82.93;26.40;;;;;;;;;;5034981;28;20005;-94
2021/11/24 05:23:16;;;;;;;86.73;26.10;;;;;;;;;;5034880;28;20160;-94
2021/11/24 05:25:42;;;;;;;80.47;23.73;;;;;;;;;;5034513;28;20364;-94
2021/11/24 05:28:07;;;;;;;78.13;24.73;;;;;;;;;;5034841;28;20028;-94
2021/11/24 05:30:33;;;;;;;91.47;24.80;;;;;;;;;;5034737;28;20096;-95
2021/11/24 05:32:58;;;;;;;75.40;23.70;;;;;;;;;;5034811;28;20043;-95
2021/11/24 05:35:25;;;;;;;75.17;25.17;;;;;;;;;;5034742;28;20120;-94
2021/11/24 05:37:50;;;;;;;74.73;25.67;;;;;;;;;;5034656;28;20021;-94
2021/11/24 05:40:16;;;;;;;76.33;26.57;;;;;;;;;;5034458;28;20028;-93
2021/11/24 05:42:48;;;;;;;68.27;23.47;;;;;;;;;;5034662;28;20020;-94
2021/11/24 05:45:25;;;;;;;70.05;24.45;;;;;;;;;;5034548;28;20104;-94
2021/11/24 05:47:54;;;;;;;69.07;23.47;;;;;;;;;;5019115;28;20117;-95
2021/11/24 05:50:20;;;;;;;79.33;23.50;;;;;;;;;;5034542;28;20106;-94
2021/11/24 05:52:46;;;;;;;69.20;23.17;;;;;;;;;;5034287;28;20029;-95
2021/11/24 05:55:11;;;;;;;74.53;22.93;;;;;;;;;;5034234;28;20052;-95
2021/11/24 05:57:36;;;;;;;64.10;22.03;;;;;;;;;;5034278;28;20044;-95
2021/11/24 06:00:03;;;;;;;66.57;22.37;;;;;;;;;;5034346;28;20496;-94
2021/11/24 06:02:28;;;;;;;68.83;22.67;;;;;;;;;;5034140;28;20049;-95
2021/11/24 06:04:53;;;;;;;57.47;21.97;;;;;;;;;;5034118;28;20013;-95
2021/11/24 06:07:18;;;;;;;58.00;21.70;;;;;;;;;;5033963;28;20060;-94
2021/11/24 06:09:44;;;;;;;60.80;22.17;;;;;;;;;;5034067;28;20025;-94
2021/11/24 06:12:09;;;;;;;59.13;22.47;;;;;;;;;;5034027;28;20029;-94
2021/11/24 06:14:34;;;;;;;58.33;21.70;;;;;;;;;;5033737;28;20025;-95
2021/11/24 06:16:59;;;;;;;59.57;22.90;;;;;;;;;;5034087;28;20029;-95
2021/11/24 06:19:25;;;;;;;58.87;20.93;;;;;;;;;;5034088;28;20029;-95
2021/11/24 06:21:50;;;;;;;58.23;22.23;;;;;;;;;;5033702;28;20025;-94
2021/11/24 06:24:15;;;;;;;61.83;22.10;;;;;;;;;;5033832;28;20032;-95
2021/11/24 06:26:41;;;;;;;66.50;23.63;;;;;;;;;;5033675;28;20022;-95
2021/11/24 06:29:06;;;;;;;63.43;23.27;;;;;;;;;;5033747;28;20056;-94
2021/11/24 06:31:31;;;;;;;70.43;24.30;;;;;;;;;;5033623;28;20021;-94
2021/11/24 06:33:56;;;;;;;82.67;24.80;;;;;;;;;;5033564;28;20025;-94
2021/11/24 06:36:24;;;;;;;75.23;24.87;;;;;;;;;;5033875;28;20473;-94
2021/11/24 06:38:50;;;;;;;72.53;25.67;;;;;;;;;;5033585;28;20017;-95
2021/11/24 06:41:15;;;;;;;64.63;24.73;;;;;;;;;;5033532;28;20025;-94
2021/11/24 06:43:40;;;;;;;77.43;24.57;;;;;;;;;;5033616;28;20017;-94
2021/11/24 06:46:05;;;;;;;68.13;22.83;;;;;;;;;;5033425;28;20028;-95
2021/11/24 06:48:31;;;;;;;61.47;22.40;;;;;;;;;;5033349;28;20171;-95
2021/11/24 06:50:56;;;;;;;67.33;24.40;;;;;;;;;;5033008;28;20021;-94
2021/11/24 06:53:22;;;;;;;67.17;22.97;;;;;;;;;;5032977;28;20021;-94
2021/11/24 06:55:47;;;;;;;64.83;22.73;;;;;;;;;;5019462;28;20022;-95
2021/11/24 06:58:12;;;;;;;62.13;22.47;;;;;;;;;;5065703;28;20052;-94
2021/11/24 07:00:38;;;;;;;65.17;23.00;;;;;;;;;;5032698;28;20072;-94
2021/11/24 07:03:03;;;;;;;61.87;22.80;;;;;;;;;;5032942;28;20021;-94
2021/11/24 07:05:28;;;;;;;57.67;22.13;;;;;;;;;;5032899;28;20026;-95
2021/11/24 07:07:53;;;;;;;65.30;22.27;;;;;;;;;;5032800;28;20469;-95
2021/11/24 07:10:19;;;;;;;70.93;23.40;;;;;;;;;;5033097;28;20061;-95
2021/11/24 07:12:44;;;;;;;70.53;25.30;;;;;;;;;;5032889;28;20461;-94
2021/11/24 07:15:09;;;;;;;66.33;24.17;;;;;;;;;;5032477;28;20030;-94
2021/11/24 07:17:34;;;;;;;80.33;24.67;;;;;;;;;;5033030;28;20117;-95
2021/11/24 07:20:01;;;;;;;69.23;22.63;;;;;;;;;;5035249;28;20025;-95
2021/11/24 07:22:27;;;;;;;86.50;25.10;;;;;;;;;;5043610;28;20026;-94
2021/11/24 07:24:52;;;;;;;72.77;25.07;;;;;;;;;;5032765;28;20021;-95
2021/11/24 07:27:17;;;;;;;76.43;22.97;;;;;;;;;;5033020;28;20112;-94
2021/11/24 07:29:42;;;;;;;69.40;22.30;;;;;;;;;;5033004;28;20098;-95
2021/11/24 07:32:08;;;;;;;72.97;23.63;;;;;;;;;;5025282;28;20020;-94
2021/11/24 07:34:33;;;;;;;62.90;21.93;;;;;;;;;;5032560;28;20544;-93
2021/11/24 07:36:59;;;;;;;81.30;25.87;;;;;;;;;;5032249;28;20025;-94
2021/11/24 07:39:24;;;;;;;71.43;24.43;;;;;;;;;;5032097;28;20017;-93
2021/11/24 07:41:49;;;;;;;84.40;26.17;;;;;;;;;;5031953;28;20053;-94
2021/11/24 07:44:14;;;;;;;83.53;26.40;;;;;;;;;;5065314;28;20088;-93
2021/11/24 07:46:40;;;;;;;80.73;27.60;;;;;;;;;;5032227;28;20021;-93
2021/11/24 07:49:05;;;;;;;89.60;29.20;;;;;;;;;;5032280;28;20108;-94
2021/11/24 07:51:30;;;;;;;80.43;25.90;;;;;;;;;;5032435;28;20397;-93
2021/11/24 07:53:56;;;;;;;73.20;25.03;;;;;;;;;;5032392;28;20469;-93
2021/11/24 07:56:21;;;;;;;76.77;25.47;;;;;;;;;;5018413;28;20022;-93
2021/11/24 07:58:47;;;;;;;89.23;27.77;;;;;;;;;;5032047;28;20033;-93
2021/11/24 08:01:12;;;;;;;72.87;24.37;;;;;;;;;;5061872;28;20453;-93
2021/11/24 08:03:38;;;;;;;78.37;25.00;;;;;;;;;;5033310;28;20022;-93
2021/11/24 08:06:03;;;;;;;85.10;25.43;;;;;;;;;;5031159;28;20025;-93
2021/11/24 08:08:29;;;;;;;87.60;25.77;;;;;;;;;;5019839;28;20040;-94
2021/11/24 08:10:54;;;;;;;82.43;25.10;;;;;;;;;;5035494;28;20044;-93
2021/11/24 08:13:21;;;;;;;73.83;25.43;;;;;;;;;;5037045;28;20036;-93
2021/11/24 08:15:46;;;;;;;73.73;24.07;;;;;;;;;;5035848;28;20076;-93
2021/11/24 08:18:11;;;;;;;77.33;23.50;;;;;;;;;;5033384;28;20029;-94
2021/11/24 08:20:37;;;;;;;74.53;23.97;;;;;;;;;;5051442;28;20022;-93
2021/11/24 08:23:02;;;;;;;67.63;24.70;;;;;;;;;;5063457;28;20032;-94
2021/11/24 08:25:28;;;;;;;74.20;25.23;;;;;;;;;;5036163;28;20112;-94
2021/11/24 08:27:53;;;;;;;75.50;24.77;;;;;;;;;;5036043;28;20030;-93
2021/11/24 08:30:20;;;;;;;74.63;22.00;;;;;;;;;;5037232;28;20018;-94
2021/11/24 08:32:45;;;;;;;81.03;23.43;;;;;;;;;;5035670;28;20035;-94
2021/11/24 08:35:10;;;;;;;81.27;24.73;;;;;;;;;;5036681;28;20049;-94
2021/11/24 08:37:36;;;;;;;72.43;24.80;;;;;;;;;;5036819;28;20024;-94
2021/11/24 08:40:01;;;;;;;71.60;24.63;;;;;;;;;;5035801;28;20024;-94
2021/11/24 08:42:27;;;;;;;79.33;25.80;;;;;;;;;;5035777;28;20105;-94
2021/11/24 08:44:52;;;;;;;79.77;25.30;;;;;;;;;;5035600;28;20079;-95
2021/11/24 08:47:18;;;;;;;84.13;27.03;;;;;;;;;;5035574;28;20109;-95
2021/11/24 08:49:43;;;;;;;92.53;28.83;;;;;;;;;;5035549;28;20021;-94
2021/11/24 08:52:08;;;;;;;87.80;26.67;;;;;;;;;;5035143;28;20025;-94
2021/11/24 08:54:37;;;;;;;86.70;28.13;;;;;;;;;;5068413;28;20067;-93
2021/11/24 08:57:02;;;;;;;95.70;27.20;;;;;;;;;;5035178;28;20018;-95
2021/11/24 08:59:27;;;;;;;109.60;30.47;;;;;;;;;;5034488;28;20025;-93
2021/11/24 09:01:53;;;;;;;107.03;32.67;;;;;;;;;;5035361;28;20369;-94
2021/11/24 09:04:18;;;;;;;108.63;29.47;;;;;;;;;;5035502;28;20013;-94
2021/11/24 09:06:43;;;;;;;91.13;26.47;;;;;;;;;;5035956;28;20546;-94
2021/11/24 09:09:08;;;;;;;92.47;27.73;;;;;;;;;;5035189;28;20052;-94
2021/11/24 09:11:34;;;;;;;104.83;29.17;;;;;;;;;;5035005;28;20021;-94
2021/11/24 09:13:59;;;;;;;97.73;30.33;;;;;;;;;;5035101;28;20056;-94
2021/11/24 09:16:24;;;;;;;100.33;30.80;;;;;;;;;;5035885;28;20053;-94
2021/11/24 09:18:49;;;;;;;97.83;29.67;;;;;;;;;;5034910;28;20026;-94
2021/11/24 09:21:15;;;;;;;98.20;28.53;;;;;;;;;;5034673;28;20056;-93
2021/11/24 09:23:43;;;;;;;103.23;30.93;;;;;;;;;;5067452;28;20028;-94
2021/11/24 09:26:16;;;;;;;99.93;30.30;;;;;;;;;;5034758;28;20021;-94
2021/11/24 09:28:42;;;;;;;96.73;29.33;;;;;;;;;;5034873;28;20029;-93
2021/11/24 09:31:07;;;;;;;97.23;29.80;;;;;;;;;;5034369;28;20033;-94
2021/11/24 09:33:34;;;;;;;99.17;29.67;;;;;;;;;;5034553;28;20040;-94
2021/11/24 09:36:00;;;;;;;96.67;28.50;;;;;;;;;;5034567;28;20029;-94
2021/11/24 09:38:25;;;;;;;99.73;28.00;;;;;;;;;;5034521;28;20079;-94
2021/11/24 09:40:51;;;;;;;93.77;28.57;;;;;;;;;;5034647;28;20470;-93
2021/11/24 09:43:17;;;;;;;98.77;29.30;;;;;;;;;;5034569;28;20017;-94
2021/11/24 09:45:44;;;;;;;106.73;30.53;;;;;;;;;;5035592;28;20107;-94
2021/11/24 09:48:09;;;;;;;89.83;27.47;;;;;;;;;;5035657;28;20033;-93
2021/11/24 09:50:35;;;;;;;93.37;28.63;;;;;;;;;;5034440;28;20022;-93
2021/11/24 09:53:01;;;;;;;95.43;29.57;;;;;;;;;;5034251;28;20060;-94
2021/11/24 09:55:27;;;;;;;93.37;28.03;;;;;;;;;;5035472;28;20025;-94
2021/11/24 09:57:54;;;;;;;88.67;28.30;;;;;;;;;;5034057;28;20029;-94
2021/11/24 10:00:19;;;;;;;89.10;30.43;;;;;;;;;;5034287;28;20105;-93
2021/11/24 10:02:44;;;;;;;82.40;29.20;;;;;;;;;;5034225;28;20038;-94
2021/11/24 10:05:10;;;;;;;90.80;28.90;;;;;;;;;;5035222;28;20381;-93
2021/11/24 10:07:35;;;;;;;88.75;29.55;;;;;;;;;;5034066;28;20457;-93
2021/11/24 10:10:01;;;;;;;80.20;28.10;;;;;;;;;;5034035;28;20036;-94
2021/11/24 10:12:26;;;;;;;71.65;25.90;;;;;;;;;;5035209;28;20025;-93
2021/11/24 10:14:51;;;;;;;76.10;27.77;;;;;;;;;;5033855;28;20037;-93
2021/11/24 10:17:20;;;;;;;76.22;26.73;;;;;;;;;;5033797;28;20044;-94
2021/11/24 10:19:58;;;;;;;79.35;27.13;;;;;;;;;;5033697;28;20091;-94
2021/11/24 10:22:23;;;;;;;79.30;27.25;;;;;;;;;;5033509;28;20018;-94
2021/11/24 10:24:59;;;;;;;76.25;26.15;;;;;;;;;;5033729;28;20030;-94
2021/11/24 10:27:32;;;;;;;64.60;24.60;;;;;;;;;;5033686;28;20021;-94
2021/11/24 10:29:57;;;;;;;54.03;21.83;;;;;;;;;;5033512;28;20025;-95
2021/11/24 10:32:25;;;;;;;57.22;22.65;;;;;;;;;;5033686;28;20025;-93
2021/11/24 10:34:51;;;;;;;51.47;21.73;;;;;;;;;;5032845;28;20648;-94
2021/11/24 10:37:21;;;;;;;58.47;22.63;;;;;;;;;;5033357;28;20081;-94
2021/11/24 10:39:57;;;;;;;56.08;21.08;;;;;;;;;;5034668;28;20009;-95
2021/11/24 10:42:24;;;;;;;53.33;21.60;;;;;;;;;;5028080;28;20018;-94
2021/11/24 10:44:53;;;;;;;49.17;19.55;;;;;;;;;;5041565;28;20108;-93
2021/11/24 10:47:19;;;;;;;62.40;23.30;;;;;;;;;;5033411;28;20018;-94
2021/11/24 10:49:44;;;;;;;53.75;20.90;;;;;;;;;;5033583;28;20013;-94
2021/11/24 10:52:23;;;;;;;52.63;18.58;;;;;;;;;;5033282;28;20588;-94
2021/11/24 10:54:59;;;;;;;55.60;20.20;;;;;;;;;;5033332;28;20013;-94
2021/11/24 10:57:25;;;;;;;59.13;18.65;;;;;;;;;;5036341;28;20018;-94
2021/11/24 10:59:50;;;;;;;55.72;21.23;;;;;;;;;;5033086;28;20040;-93
2021/11/24 11:02:19;;;;;;;66.22;21.88;;;;;;;;;;5033375;28;20022;-94
2021/11/24 11:04:54;;;;;;;49.33;16.95;;;;;;;;;;5033008;28;20021;-93
2021/11/24 11:07:19;;;;;;;55.65;18.73;;;;;;;;;;5033136;28;20032;-94
2021/11/24 11:09:44;;;;;;;58.70;18.52;;;;;;;;;;5032911;28;20022;-94
2021/11/24 11:12:09;;;;;;;63.58;21.88;;;;;;;;;;5033006;28;20013;-94
2021/11/24 11:14:35;;;;;;;64.70;21.83;;;;;;;;;;5033772;28;20373;-94
2021/11/24 11:17:00;;;;;;;56.70;19.58;;;;;;;;;;5052742;28;20079;-94
2021/11/24 11:19:38;;;;;;;60.40;19.73;;;;;;;;;;5034042;28;20046;-93
2021/11/24 11:22:04;;;;;;;50.85;19.55;;;;;;;;;;5049545;28;20022;-94
2021/11/24 11:24:29;;;;;;;58.33;20.55;;;;;;;;;;5032342;28;20040;-93
2021/11/24 11:26:55;;;;;;;65.45;22.33;;;;;;;;;;5032714;28;20048;-93
2021/11/24 11:29:21;;;;;;;61.87;22.17;;;;;;;;;;5032859;28;20018;-94
2021/11/24 11:31:46;;;;;;;62.85;21.45;;;;;;;;;;5032711;28;20079;-93
2021/11/24 11:34:14;;;;;;;68.93;22.00;;;;;;;;;;5032662;28;20017;-94
2021/11/24 11:36:40;;;;;;;60.60;19.83;;;;;;;;;;5032852;28;20032;-94
2021/11/24 11:39:05;;;;;;;64.93;22.20;;;;;;;;;;5032672;28;20021;-94
2021/11/24 11:41:32;;;;;;;69.50;23.90;;;;;;;;;;5032781;28;20032;-94
2021/11/24 11:43:58;;;;;;;64.13;21.17;;;;;;;;;;5032435;28;20025;-94
2021/11/24 11:46:25;;;;;;;66.97;22.50;;;;;;;;;;5036930;28;20025;-94
2021/11/24 11:48:52;;;;;;;67.70;22.33;;;;;;;;;;5036796;28;20025;-94
2021/11/24 11:51:27;;;;;;;64.38;21.27;;;;;;;;;;5036290;28;20018;-94
2021/11/24 11:53:53;;;;;;;75.78;21.80;;;;;;;;;;5036431;28;20025;-93
2021/11/24 11:56:21;;;;;;;63.93;22.03;;;;;;;;;;5036483;28;20018;-93
2021/11/24 11:58:46;;;;;;;63.95;21.98;;;;;;;;;;5036417;28;20054;-94
2021/11/24 12:01:13;;;;;;;61.28;20.90;;;;;;;;;;5037382;28;20022;-94
2021/11/24 12:03:54;;;;;;;64.03;22.00;;;;;;;;;;5036483;28;20373;-94
2021/11/24 12:06:21;;;;;;;66.45;21.45;;;;;;;;;;5036315;28;20017;-94
2021/11/24 12:09:05;;;;;;;65.88;22.77;;;;;;;;;;5036382;28;21161;-93
2021/11/24 12:11:49;;;;;;;71.10;22.90;;;;;;;;;;5036086;28;20104;-93
2021/11/24 12:14:33;;;;;;;71.47;22.60;;;;;;;;;;5036278;28;20021;-93
2021/11/24 12:16:58;;;;;;;56.80;21.13;;;;;;;;;;5035975;28;20105;-94
2021/11/24 12:19:33;;;;;;;70.40;21.55;;;;;;;;;;5036163;28;20532;-94
2021/11/24 12:21:58;;;;;;;63.22;22.15;;;;;;;;;;5036076;28;20018;-94
2021/11/24 12:24:37;;;;;;;80.53;25.13;;;;;;;;;;5036241;28;20018;-94
2021/11/24 12:27:02;;;;;;;67.90;21.92;;;;;;;;;;5035847;28;20024;-94
2021/11/24 12:29:47;;;;;;;63.10;22.77;;;;;;;;;;5035877;28;20017;-94
2021/11/24 12:32:14;;;;;;;66.57;23.15;;;;;;;;;;5035659;28;20155;-93
2021/11/24 12:34:47;;;;;;;64.75;21.48;;;;;;;;;;5035582;28;20021;-93
2021/11/24 12:37:12;;;;;;;;;;;;;;;;;;5052990;28;20033;-94
2021/11/24 12:39:37;;;;;;;66.40;22.40;;;;;;;;;;5036833;28;19913;-93
2021/11/24 12:42:02;;;;;;;67.33;22.30;;;;;;;;;;5035643;28;20615;-94
2021/11/24 12:44:27;;;;;;;71.80;23.23;;;;;;;;;;5030534;28;20014;-93
2021/11/24 12:46:53;;;;;;;66.90;22.43;;;;;;;;;;5048557;28;20033;-93
2021/11/24 12:49:18;;;;;;;74.87;24.50;;;;;;;;;;5064801;28;20072;-93
2021/11/24 12:51:48;;;;;;;68.30;23.67;;;;;;;;;;5026584;28;20006;-93
2021/11/24 12:54:16;;;;;;;72.10;23.00;;;;;;;;;;5062892;28;20070;-94
2021/11/24 12:56:44;;;;;;;74.80;23.07;;;;;;;;;;5033617;28;20430;-93
2021/11/24 12:59:14;;;;;;;72.43;25.30;;;;;;;;;;5021220;28;20018;-93
2021/11/24 13:01:43;;;;;;;62.30;22.30;;;;;;;;;;5021044;28;20072;-94
2021/11/24 13:04:10;;;;;;;63.40;22.07;;;;;;;;;;5036258;28;20026;-94
2021/11/24 13:06:37;;;;;;;63.92;21.77;;;;;;;;;;5034213;28;20496;-94
2021/11/24 13:09:16;;;;;;;62.28;22.25;;;;;;;;;;5023969;28;20072;-93
2021/11/24 13:11:44;;;;;;;55.57;20.80;;;;;;;;;;5066348;28;20056;-94
2021/11/24 13:14:09;;;;;;;58.07;21.80;;;;;;;;;;5035043;28;20021;-94
2021/11/24 13:16:34;;;;;;;60.65;21.83;;;;;;;;;;5034944;28;20063;-94
2021/11/24 13:19:00;;;;;;;63.70;22.40;;;;;;;;;;5034939;28;20033;-94
2021/11/24 13:21:26;;;;;;;69.70;23.10;;;;;;;;;;5034728;28;20095;-93
2021/11/24 13:24:01;;;;;;;58.00;21.52;;;;;;;;;;5034902;28;20017;-94
2021/11/24 13:26:27;;;;;;;58.57;20.83;;;;;;;;;;5034751;28;20017;-94
2021/11/24 13:28:53;;;;;;;55.60;19.63;;;;;;;;;;5036013;28;20423;-93
2021/11/24 13:31:18;;;;;;;51.35;18.92;;;;;;;;;;5034929;28;20021;-93
2021/11/24 13:33:43;;;;;;;53.88;19.17;;;;;;;;;;5034673;28;20028;-94
2021/11/24 13:36:10;;;;;;;61.50;19.83;;;;;;;;;;5034616;28;20025;-93
2021/11/24 13:38:40;;;;;;;52.67;19.73;;;;;;;;;;5034461;28;20075;-93
2021/11/24 13:41:19;;;;;;;66.25;18.23;;;;;;;;;;5034640;28;20021;-93
2021/11/24 13:43:47;;;;;;;57.92;19.92;;;;;;;;;;5034325;28;20017;-94
2021/11/24 13:46:14;;;;;;;60.60;18.90;;;;;;;;;;5029430;28;20090;-94
2021/11/24 13:48:40;;;;;;;57.97;17.75;;;;;;;;;;5058880;28;20076;-93
2021/11/24 13:51:06;;;;;;;59.90;17.57;;;;;;;;;;5034389;28;20373;-94
2021/11/24 13:53:33;;;;;;;64.93;18.80;;;;;;;;;;5033520;28;20026;-93
2021/11/24 13:56:17;;;;;;;56.53;16.17;;;;;;;;;;5034980;28;20049;-93
2021/11/24 13:59:01;;;;;;;60.92;19.25;;;;;;;;;;5034346;28;20461;-93
2021/11/24 14:01:28;;;;;;;57.08;18.75;;;;;;;;;;5034160;28;20018;-94
2021/11/24 14:03:57;;;;;;;60.88;20.38;;;;;;;;;;5034088;28;20092;-93
2021/11/24 14:06:31;;;;;;;58.63;18.95;;;;;;;;;;5019850;28;20025;-93
2021/11/24 14:08:56;;;;;;;52.90;18.75;;;;;;;;;;5034954;28;20013;-93
2021/11/24 14:11:25;;;;;;;58.60;18.42;;;;;;;;;;5033790;28;20025;-93
2021/11/24 14:13:51;;;;;;;58.13;19.23;;;;;;;;;;5033921;28;20052;-94